sensor_id;sensor_type;location;lat;lon;timestamp;P1;durP1;ratioP1;P2;durP2;ratioP2
53145;SDS011;39042;53.150;5.898;2023-03-30T00:00:48;16.55;;;9.23;;
53145;SDS011;39042;53.150;5.898;2023-03-30T00:03:14;14.40;;;8.90;;
53145;SDS011;39042;53.150;5.898;2023-03-30T00:05:43;14.90;;;8.73;;
53145;SDS011;39042;53.150;5.898;2023-03-30T00:08:11;15.20;;;8.40;;
53145;SDS011;39042;53.150;5.898;2023-03-30T00:10:39;14.85;;;8.75;;
53145;SDS011;39042;53.150;5.898;2023-03-30T00:15:32;11.25;;;7.45;;
53145;SDS011;39042;53.150;5.898;2023-03-30T00:17:58;13.25;;;7.78;;
53145;SDS011;39042;53.150;5.898;2023-03-30T00:20:26;14.07;;;8.07;;
53145;SDS011;39042;53.150;5.898;2023-03-30T00:22:51;11.63;;;7.18;;
53145;SDS011;39042;53.150;5.898;2023-03-30T00:25:17;10.27;;;7.17;;
53145;SDS011;39042;53.150;5.898;2023-03-30T00:27:43;15.02;;;8.15;;
53145;SDS011;39042;53.150;5.898;2023-03-30T00:30:11;13.32;;;7.50;;
53145;SDS011;39042;53.150;5.898;2023-03-30T00:32:38;10.70;;;6.97;;
53145;SDS011;39042;53.150;5.898;2023-03-30T00:35:05;9.52;;;7.60;;
53145;SDS011;39042;53.150;5.898;2023-03-30T00:37:31;12.55;;;7.95;;
53145;SDS011;39042;53.150;5.898;2023-03-30T00:39:57;12.30;;;7.28;;
53145;SDS011;39042;53.150;5.898;2023-03-30T00:42:23;12.38;;;7.05;;
53145;SDS011;39042;53.150;5.898;2023-03-30T00:45:24;10.60;;;7.28;;
53145;SDS011;39042;53.150;5.898;2023-03-30T00:53:34;10.07;;;7.40;;
53145;SDS011;39042;53.150;5.898;2023-03-30T00:56:05;16.42;;;7.50;;
53145;SDS011;39042;53.150;5.898;2023-03-30T00:58:34;13.90;;;7.78;;
53145;SDS011;39042;53.150;5.898;2023-03-30T01:01:03;14.32;;;7.93;;
53145;SDS011;39042;53.150;5.898;2023-03-30T01:03:35;13.05;;;7.63;;
53145;SDS011;39042;53.150;5.898;2023-03-30T01:06:08;11.80;;;7.18;;
53145;SDS011;39042;53.150;5.898;2023-03-30T01:08:35;11.32;;;7.05;;
53145;SDS011;39042;53.150;5.898;2023-03-30T01:11:03;10.50;;;6.78;;
53145;SDS011;39042;53.150;5.898;2023-03-30T01:13:32;12.35;;;7.57;;
53145;SDS011;39042;53.150;5.898;2023-03-30T01:18:34;13.57;;;5.90;;
53145;SDS011;39042;53.150;5.898;2023-03-30T01:21:15;10.35;;;5.47;;
53145;SDS011;39042;53.150;5.898;2023-03-30T01:26:46;13.13;;;6.18;;
53145;SDS011;39042;53.150;5.898;2023-03-30T01:29:42;11.00;;;5.78;;
53145;SDS011;39042;53.150;5.898;2023-03-30T01:32:21;12.10;;;5.10;;
53145;SDS011;39042;53.150;5.898;2023-03-30T01:34:58;8.52;;;4.90;;
53145;SDS011;39042;53.150;5.898;2023-03-30T01:44:33;8.90;;;4.80;;
53145;SDS011;39042;53.150;5.898;2023-03-30T01:48:17;11.88;;;4.45;;
53145;SDS011;39042;53.150;5.898;2023-03-30T01:53:51;8.27;;;3.90;;
53145;SDS011;39042;53.150;5.898;2023-03-30T01:59:39;7.30;;;3.83;;
53145;SDS011;39042;53.150;5.898;2023-03-30T02:02:13;7.95;;;3.90;;
53145;SDS011;39042;53.150;5.898;2023-03-30T02:05:09;11.05;;;4.15;;
53145;SDS011;39042;53.150;5.898;2023-03-30T02:07:48;9.45;;;4.18;;
53145;SDS011;39042;53.150;5.898;2023-03-30T02:10:44;11.63;;;3.58;;
53145;SDS011;39042;53.150;5.898;2023-03-30T02:13:18;10.73;;;4.72;;
53145;SDS011;39042;53.150;5.898;2023-03-30T02:16:14;8.73;;;3.50;;
53145;SDS011;39042;53.150;5.898;2023-03-30T02:18:49;11.10;;;3.80;;
53145;SDS011;39042;53.150;5.898;2023-03-30T02:21:42;6.72;;;3.60;;
53145;SDS011;39042;53.150;5.898;2023-03-30T02:24:16;9.38;;;3.15;;
53145;SDS011;39042;53.150;5.898;2023-03-30T02:27:12;7.45;;;3.15;;
53145;SDS011;39042;53.150;5.898;2023-03-30T02:30:06;8.27;;;3.00;;
53145;SDS011;39042;53.150;5.898;2023-03-30T02:32:47;9.93;;;3.03;;
53145;SDS011;39042;53.150;5.898;2023-03-30T02:38:34;7.53;;;3.03;;
53145;SDS011;39042;53.150;5.898;2023-03-30T03:01:15;10.23;;;3.75;;
53145;SDS011;39042;53.150;5.898;2023-03-30T03:04:05;8.95;;;2.95;;
53145;SDS011;39042;53.150;5.898;2023-03-30T03:07:20;13.07;;;4.10;;
53145;SDS011;39042;53.150;5.898;2023-03-30T03:09:52;12.30;;;3.72;;
53145;SDS011;39042;53.150;5.898;2023-03-30T03:12:45;10.68;;;4.63;;
53145;SDS011;39042;53.150;5.898;2023-03-30T03:15:19;10.65;;;4.57;;
53145;SDS011;39042;53.150;5.898;2023-03-30T03:18:18;11.98;;;3.90;;
53145;SDS011;39042;53.150;5.898;2023-03-30T03:20:50;11.90;;;4.40;;
53145;SDS011;39042;53.150;5.898;2023-03-30T03:23:43;11.52;;;4.70;;
53145;SDS011;39042;53.150;5.898;2023-03-30T03:26:20;12.43;;;4.95;;
53145;SDS011;39042;53.150;5.898;2023-03-30T03:29:13;14.95;;;4.40;;
53145;SDS011;39042;53.150;5.898;2023-03-30T03:31:45;12.63;;;3.60;;
53145;SDS011;39042;53.150;5.898;2023-03-30T03:34:42;13.23;;;4.50;;
53145;SDS011;39042;53.150;5.898;2023-03-30T03:37:17;13.10;;;4.25;;
53145;SDS011;39042;53.150;5.898;2023-03-30T03:40:10;13.93;;;4.05;;
53145;SDS011;39042;53.150;5.898;2023-03-30T03:42:42;10.93;;;3.83;;
53145;SDS011;39042;53.150;5.898;2023-03-30T03:45:36;14.50;;;3.83;;
53145;SDS011;39042;53.150;5.898;2023-03-30T03:48:08;11.77;;;4.05;;
53145;SDS011;39042;53.150;5.898;2023-03-30T03:51:02;11.85;;;3.70;;
53145;SDS011;39042;53.150;5.898;2023-03-30T03:53:34;10.52;;;3.72;;
53145;SDS011;39042;53.150;5.898;2023-03-30T03:56:28;13.15;;;4.30;;
53145;SDS011;39042;53.150;5.898;2023-03-30T03:59:00;14.52;;;4.45;;
53145;SDS011;39042;53.150;5.898;2023-03-30T04:01:53;10.77;;;3.60;;
53145;SDS011;39042;53.150;5.898;2023-03-30T04:04:26;13.32;;;3.20;;
53145;SDS011;39042;53.150;5.898;2023-03-30T04:07:19;10.80;;;4.03;;
53145;SDS011;39042;53.150;5.898;2023-03-30T04:09:52;13.52;;;2.90;;
53145;SDS011;39042;53.150;5.898;2023-03-30T04:12:58;10.02;;;2.33;;
53145;SDS011;39042;53.150;5.898;2023-03-30T04:15:49;10.32;;;3.45;;
53145;SDS011;39042;53.150;5.898;2023-03-30T04:19:17;9.02;;;2.20;;
53145;SDS011;39042;53.150;5.898;2023-03-30T04:22:02;8.77;;;2.53;;
53145;SDS011;39042;53.150;5.898;2023-03-30T04:25:16;10.70;;;2.40;;
53145;SDS011;39042;53.150;5.898;2023-03-30T04:28:31;13.73;;;2.45;;
53145;SDS011;39042;53.150;5.898;2023-03-30T04:31:25;12.20;;;2.15;;
53145;SDS011;39042;53.150;5.898;2023-03-30T04:34:37;9.43;;;2.22;;
53145;SDS011;39042;53.150;5.898;2023-03-30T04:37:32;11.35;;;2.20;;
53145;SDS011;39042;53.150;5.898;2023-03-30T04:40:44;10.45;;;1.80;;
53145;SDS011;39042;53.150;5.898;2023-03-30T04:43:17;12.02;;;2.20;;
53145;SDS011;39042;53.150;5.898;2023-03-30T04:46:19;10.52;;;2.20;;
53145;SDS011;39042;53.150;5.898;2023-03-30T04:49:05;10.00;;;2.05;;
53145;SDS011;39042;53.150;5.898;2023-03-30T04:52:23;10.43;;;2.40;;
53145;SDS011;39042;53.150;5.898;2023-03-30T04:55:40;10.88;;;2.08;;
53145;SDS011;39042;53.150;5.898;2023-03-30T04:58:33;15.88;;;2.30;;
53145;SDS011;39042;53.150;5.898;2023-03-30T05:01:48;10.60;;;2.90;;
53145;SDS011;39042;53.150;5.898;2023-03-30T05:04:40;13.57;;;2.28;;
53145;SDS011;39042;53.150;5.898;2023-03-30T05:07:52;10.75;;;2.53;;
53145;SDS011;39042;53.150;5.898;2023-03-30T05:10:42;10.50;;;2.17;;
53145;SDS011;39042;53.150;5.898;2023-03-30T05:13:52;9.40;;;2.30;;
53145;SDS011;39042;53.150;5.898;2023-03-30T05:16:33;14.30;;;2.38;;
53145;SDS011;39042;53.150;5.898;2023-03-30T05:19:49;12.27;;;2.63;;
53145;SDS011;39042;53.150;5.898;2023-03-30T05:22:33;10.55;;;1.95;;
53145;SDS011;39042;53.150;5.898;2023-03-30T05:25:54;14.32;;;2.53;;
53145;SDS011;39042;53.150;5.898;2023-03-30T05:29:10;10.70;;;3.00;;
53145;SDS011;39042;53.150;5.898;2023-03-30T05:32:08;8.48;;;1.52;;
53145;SDS011;39042;53.150;5.898;2023-03-30T05:35:16;10.55;;;2.50;;
53145;SDS011;39042;53.150;5.898;2023-03-30T05:38:05;10.73;;;2.20;;
53145;SDS011;39042;53.150;5.898;2023-03-30T05:41:18;8.95;;;2.25;;
53145;SDS011;39042;53.150;5.898;2023-03-30T05:44:15;9.13;;;1.92;;
53145;SDS011;39042;53.150;5.898;2023-03-30T05:47:34;10.85;;;2.30;;
53145;SDS011;39042;53.150;5.898;2023-03-30T05:50:16;11.35;;;1.92;;
53145;SDS011;39042;53.150;5.898;2023-03-30T05:53:15;10.20;;;1.83;;
53145;SDS011;39042;53.150;5.898;2023-03-30T05:56:14;10.95;;;1.70;;
53145;SDS011;39042;53.150;5.898;2023-03-30T05:59:24;8.45;;;2.13;;
53145;SDS011;39042;53.150;5.898;2023-03-30T06:02:16;8.55;;;1.90;;
53145;SDS011;39042;53.150;5.898;2023-03-30T06:05:15;16.73;;;2.40;;
53145;SDS011;39042;53.150;5.898;2023-03-30T06:07:47;12.13;;;2.30;;
53145;SDS011;39042;53.150;5.898;2023-03-30T06:10:40;16.55;;;2.05;;
53145;SDS011;39042;53.150;5.898;2023-03-30T06:13:12;9.10;;;2.22;;
53145;SDS011;39042;53.150;5.898;2023-03-30T06:16:05;10.85;;;2.35;;
53145;SDS011;39042;53.150;5.898;2023-03-30T06:18:38;15.30;;;2.45;;
53145;SDS011;39042;53.150;5.898;2023-03-30T06:21:31;15.77;;;1.90;;
53145;SDS011;39042;53.150;5.898;2023-03-30T06:24:25;11.05;;;2.20;;
53145;SDS011;39042;53.150;5.898;2023-03-30T06:27:18;8.68;;;1.60;;
53145;SDS011;39042;53.150;5.898;2023-03-30T06:30:11;13.85;;;2.75;;
53145;SDS011;39042;53.150;5.898;2023-03-30T06:32:48;13.23;;;2.40;;
53145;SDS011;39042;53.150;5.898;2023-03-30T06:35:50;18.88;;;2.90;;
53145;SDS011;39042;53.150;5.898;2023-03-30T06:38:23;19.15;;;3.22;;
53145;SDS011;39042;53.150;5.898;2023-03-30T06:41:16;17.17;;;3.15;;
53145;SDS011;39042;53.150;5.898;2023-03-30T06:43:49;12.15;;;2.42;;
53145;SDS011;39042;53.150;5.898;2023-03-30T06:46:46;22.20;;;3.30;;
53145;SDS011;39042;53.150;5.898;2023-03-30T06:49:18;20.90;;;2.58;;
53145;SDS011;39042;53.150;5.898;2023-03-30T06:52:31;21.17;;;3.35;;
53145;SDS011;39042;53.150;5.898;2023-03-30T06:55:05;18.63;;;3.63;;
53145;SDS011;39042;53.150;5.898;2023-03-30T06:57:58;17.30;;;2.58;;
53145;SDS011;39042;53.150;5.898;2023-03-30T07:00:30;23.15;;;3.03;;
53145;SDS011;39042;53.150;5.898;2023-03-30T07:04:01;24.13;;;3.30;;
53145;SDS011;39042;53.150;5.898;2023-03-30T07:06:53;17.75;;;2.88;;
53145;SDS011;39042;53.150;5.898;2023-03-30T07:09:46;27.02;;;3.85;;
53145;SDS011;39042;53.150;5.898;2023-03-30T07:12:18;24.80;;;3.95;;
53145;SDS011;39042;53.150;5.898;2023-03-30T07:15:12;21.63;;;3.13;;
53145;SDS011;39042;53.150;5.898;2023-03-30T07:17:45;18.77;;;3.60;;
53145;SDS011;39042;53.150;5.898;2023-03-30T07:20:39;21.87;;;3.40;;
53145;SDS011;39042;53.150;5.898;2023-03-30T07:23:17;17.38;;;3.30;;
53145;SDS011;39042;53.150;5.898;2023-03-30T07:26:10;20.23;;;3.00;;
53145;SDS011;39042;53.150;5.898;2023-03-30T07:29:11;18.80;;;2.55;;
53145;SDS011;39042;53.150;5.898;2023-03-30T07:31:49;19.95;;;3.38;;
53145;SDS011;39042;53.150;5.898;2023-03-30T07:34:42;16.40;;;2.58;;
53145;SDS011;39042;53.150;5.898;2023-03-30T07:37:15;16.52;;;2.67;;
53145;SDS011;39042;53.150;5.898;2023-03-30T07:40:09;21.05;;;3.25;;
53145;SDS011;39042;53.150;5.898;2023-03-30T07:42:43;16.88;;;3.75;;
53145;SDS011;39042;53.150;5.898;2023-03-30T07:45:36;23.65;;;3.95;;
53145;SDS011;39042;53.150;5.898;2023-03-30T07:48:12;26.55;;;3.72;;
53145;SDS011;39042;53.150;5.898;2023-03-30T07:51:06;21.33;;;3.22;;
53145;SDS011;39042;53.150;5.898;2023-03-30T07:53:50;24.65;;;4.30;;
53145;SDS011;39042;53.150;5.898;2023-03-30T07:56:58;26.88;;;3.83;;
53145;SDS011;39042;53.150;5.898;2023-03-30T07:59:30;26.52;;;3.92;;
53145;SDS011;39042;53.150;5.898;2023-03-30T08:02:41;22.00;;;3.65;;
53145;SDS011;39042;53.150;5.898;2023-03-30T08:05:16;21.38;;;3.50;;
53145;SDS011;39042;53.150;5.898;2023-03-30T08:08:20;29.45;;;4.00;;
53145;SDS011;39042;53.150;5.898;2023-03-30T08:10:53;29.05;;;3.70;;
53145;SDS011;39042;53.150;5.898;2023-03-30T08:13:46;27.02;;;3.85;;
53145;SDS011;39042;53.150;5.898;2023-03-30T08:16:18;25.60;;;5.10;;
53145;SDS011;39042;53.150;5.898;2023-03-30T08:19:11;26.67;;;4.70;;
53145;SDS011;39042;53.150;5.898;2023-03-30T08:21:43;21.35;;;3.83;;
53145;SDS011;39042;53.150;5.898;2023-03-30T08:24:36;23.48;;;3.75;;
53145;SDS011;39042;53.150;5.898;2023-03-30T08:27:08;22.17;;;3.92;;
53145;SDS011;39042;53.150;5.898;2023-03-30T08:30:01;25.88;;;3.65;;
53145;SDS011;39042;53.150;5.898;2023-03-30T08:32:34;18.10;;;3.53;;
53145;SDS011;39042;53.150;5.898;2023-03-30T08:35:27;24.38;;;3.55;;
53145;SDS011;39042;53.150;5.898;2023-03-30T08:37:59;27.15;;;4.22;;
53145;SDS011;39042;53.150;5.898;2023-03-30T08:40:52;20.40;;;3.33;;
53145;SDS011;39042;53.150;5.898;2023-03-30T08:46:37;23.23;;;3.50;;
53145;SDS011;39042;53.150;5.898;2023-03-30T08:49:12;22.88;;;3.78;;
53145;SDS011;39042;53.150;5.898;2023-03-30T08:52:08;19.30;;;2.92;;
53145;SDS011;39042;53.150;5.898;2023-03-30T08:54:48;19.17;;;3.00;;
53145;SDS011;39042;53.150;5.898;2023-03-30T08:57:46;24.60;;;3.30;;
53145;SDS011;39042;53.150;5.898;2023-03-30T09:00:38;19.58;;;3.20;;
53145;SDS011;39042;53.150;5.898;2023-03-30T09:06:48;17.80;;;2.53;;
53145;SDS011;39042;53.150;5.898;2023-03-30T09:09:44;20.98;;;2.97;;
53145;SDS011;39042;53.150;5.898;2023-03-30T09:12:35;21.77;;;3.22;;
53145;SDS011;39042;53.150;5.898;2023-03-30T09:15:33;18.02;;;3.20;;
53145;SDS011;39042;53.150;5.898;2023-03-30T09:21:12;19.08;;;3.05;;
53145;SDS011;39042;53.150;5.898;2023-03-30T09:23:44;16.65;;;2.45;;
53145;SDS011;39042;53.150;5.898;2023-03-30T09:26:43;21.67;;;2.80;;
53145;SDS011;39042;53.150;5.898;2023-03-30T09:29:46;21.02;;;3.58;;
53145;SDS011;39042;53.150;5.898;2023-03-30T09:35:22;18.58;;;2.88;;
53145;SDS011;39042;53.150;5.898;2023-03-30T09:37:58;13.82;;;2.60;;
53145;SDS011;39042;53.150;5.898;2023-03-30T09:40:56;22.63;;;3.67;;
53145;SDS011;39042;53.150;5.898;2023-03-30T09:43:50;19.30;;;2.60;;
53145;SDS011;39042;53.150;5.898;2023-03-30T09:46:44;12.77;;;2.67;;
53145;SDS011;39042;53.150;5.898;2023-03-30T09:49:17;14.20;;;2.22;;
53145;SDS011;39042;53.150;5.898;2023-03-30T09:52:04;12.75;;;2.40;;
53145;SDS011;39042;53.150;5.898;2023-03-30T09:54:39;14.38;;;2.47;;
53145;SDS011;39042;53.150;5.898;2023-03-30T09:57:10;14.65;;;2.45;;
53145;SDS011;39042;53.150;5.898;2023-03-30T09:59:51;15.82;;;2.45;;
53145;SDS011;39042;53.150;5.898;2023-03-30T10:02:20;12.02;;;2.50;;
53145;SDS011;39042;53.150;5.898;2023-03-30T11:26:26;20.80;;;3.92;;
53145;SDS011;39042;53.150;5.898;2023-03-30T11:29:04;24.80;;;4.22;;
53145;SDS011;39042;53.150;5.898;2023-03-30T11:31:47;24.52;;;4.13;;
53145;SDS011;39042;53.150;5.898;2023-03-30T11:37:39;24.52;;;5.05;;
53145;SDS011;39042;53.150;5.898;2023-03-30T11:40:19;19.58;;;3.42;;
53145;SDS011;39042;53.150;5.898;2023-03-30T11:42:47;27.38;;;3.80;;
53145;SDS011;39042;53.150;5.898;2023-03-30T11:50:51;22.52;;;4.05;;
53145;SDS011;39042;53.150;5.898;2023-03-30T11:53:41;20.83;;;3.60;;
53145;SDS011;39042;53.150;5.898;2023-03-30T11:59:16;24.48;;;4.93;;
53145;SDS011;39042;53.150;5.898;2023-03-30T12:04:34;22.23;;;4.53;;
53145;SDS011;39042;53.150;5.898;2023-03-30T12:07:57;24.85;;;3.83;;
53145;SDS011;39042;53.150;5.898;2023-03-30T12:09:58;25.52;;;3.75;;
53145;SDS011;39042;53.150;5.898;2023-03-30T12:12:30;24.10;;;5.15;;
53145;SDS011;39042;53.150;5.898;2023-03-30T12:20:19;21.40;;;3.78;;
53145;SDS011;39042;53.150;5.898;2023-03-30T12:26:05;27.52;;;4.55;;
53145;SDS011;39042;53.150;5.898;2023-03-30T12:29:42;26.52;;;3.70;;
53145;SDS011;39042;53.150;5.898;2023-03-30T12:34:12;22.88;;;4.35;;
53145;SDS011;39042;53.150;5.898;2023-03-30T12:36:38;23.00;;;3.50;;
53145;SDS011;39042;53.150;5.898;2023-03-30T12:39:18;24.55;;;3.78;;
53145;SDS011;39042;53.150;5.898;2023-03-30T12:41:53;29.88;;;4.65;;
53145;SDS011;39042;53.150;5.898;2023-03-30T12:44:34;25.15;;;4.72;;
53145;SDS011;39042;53.150;5.898;2023-03-30T12:57:58;32.90;;;4.43;;
53145;SDS011;39042;53.150;5.898;2023-03-30T13:03:46;23.35;;;4.15;;
53145;SDS011;39042;53.150;5.898;2023-03-30T13:06:23;28.23;;;4.72;;
53145;SDS011;39042;53.150;5.898;2023-03-30T13:12:33;26.75;;;5.15;;
53145;SDS011;39042;53.150;5.898;2023-03-30T13:35:11;33.35;;;6.07;;
53145;SDS011;39042;53.150;5.898;2023-03-30T13:40:46;28.02;;;4.32;;
53145;SDS011;39042;53.150;5.898;2023-03-30T13:43:41;24.98;;;4.93;;
53145;SDS011;39042;53.150;5.898;2023-03-30T13:51:42;28.90;;;4.85;;
53145;SDS011;39042;53.150;5.898;2023-03-30T13:54:20;21.63;;;4.05;;
53145;SDS011;39042;53.150;5.898;2023-03-30T13:57:10;24.17;;;4.25;;
53145;SDS011;39042;53.150;5.898;2023-03-30T13:59:40;32.17;;;4.18;;
53145;SDS011;39042;53.150;5.898;2023-03-30T14:02:15;26.35;;;4.78;;
53145;SDS011;39042;53.150;5.898;2023-03-30T14:04:43;22.17;;;3.85;;
53145;SDS011;39042;53.150;5.898;2023-03-30T14:07:13;24.07;;;4.43;;
53145;SDS011;39042;53.150;5.898;2023-03-30T14:09:41;24.30;;;3.72;;
53145;SDS011;39042;53.150;5.898;2023-03-30T14:12:09;24.85;;;4.90;;
53145;SDS011;39042;53.150;5.898;2023-03-30T14:14:37;33.08;;;4.65;;
53145;SDS011;39042;53.150;5.898;2023-03-30T14:17:28;25.60;;;3.88;;
53145;SDS011;39042;53.150;5.898;2023-03-30T14:22:39;35.90;;;4.65;;
53145;SDS011;39042;53.150;5.898;2023-03-30T14:25:26;25.73;;;3.78;;
53145;SDS011;39042;53.150;5.898;2023-03-30T14:27:56;32.08;;;4.50;;
53145;SDS011;39042;53.150;5.898;2023-03-30T14:30:26;28.23;;;3.78;;
53145;SDS011;39042;53.150;5.898;2023-03-30T14:33:05;28.92;;;4.57;;
53145;SDS011;39042;53.150;5.898;2023-03-30T14:35:43;22.70;;;3.92;;
53145;SDS011;39042;53.150;5.898;2023-03-30T14:38:15;35.13;;;4.93;;
53145;SDS011;39042;53.150;5.898;2023-03-30T14:40:54;33.63;;;4.72;;
53145;SDS011;39042;53.150;5.898;2023-03-30T14:43:27;34.40;;;5.22;;
53145;SDS011;39042;53.150;5.898;2023-03-30T14:45:56;29.42;;;5.03;;
53145;SDS011;39042;53.150;5.898;2023-03-30T14:48:30;32.85;;;4.85;;
53145;SDS011;39042;53.150;5.898;2023-03-30T14:50:59;27.83;;;4.55;;
53145;SDS011;39042;53.150;5.898;2023-03-30T14:53:26;32.47;;;4.90;;
53145;SDS011;39042;53.150;5.898;2023-03-30T14:55:54;28.20;;;4.50;;
53145;SDS011;39042;53.150;5.898;2023-03-30T14:58:24;29.02;;;4.65;;
53145;SDS011;39042;53.150;5.898;2023-03-30T15:00:52;30.02;;;5.10;;
53145;SDS011;39042;53.150;5.898;2023-03-30T15:03:22;26.95;;;4.80;;
53145;SDS011;39042;53.150;5.898;2023-03-30T15:05:50;28.13;;;4.95;;
53145;SDS011;39042;53.150;5.898;2023-03-30T15:08:20;31.23;;;5.87;;
53145;SDS011;39042;53.150;5.898;2023-03-30T15:13:33;37.30;;;6.65;;
53145;SDS011;39042;53.150;5.898;2023-03-30T15:16:26;34.13;;;7.95;;
53145;SDS011;39042;53.150;5.898;2023-03-30T15:18:56;34.40;;;9.43;;
53145;SDS011;39042;53.150;5.898;2023-03-30T15:21:26;37.13;;;8.48;;
53145;SDS011;39042;53.150;5.898;2023-03-30T15:23:55;42.92;;;8.40;;
53145;SDS011;39042;53.150;5.898;2023-03-30T15:26:22;38.75;;;7.95;;
53145;SDS011;39042;53.150;5.898;2023-03-30T15:28:52;35.15;;;7.38;;
53145;SDS011;39042;53.150;5.898;2023-03-30T15:31:21;42.88;;;9.05;;
53145;SDS011;39042;53.150;5.898;2023-03-30T15:36:19;29.95;;;6.63;;
53145;SDS011;39042;53.150;5.898;2023-03-30T15:41:21;36.05;;;7.00;;
53145;SDS011;39042;53.150;5.898;2023-03-30T15:43:52;34.10;;;7.50;;
53145;SDS011;39042;53.150;5.898;2023-03-30T15:46:36;38.67;;;6.97;;
53145;SDS011;39042;53.150;5.898;2023-03-30T15:49:03;32.08;;;5.05;;
53145;SDS011;39042;53.150;5.898;2023-03-30T15:51:31;42.95;;;11.05;;
53145;SDS011;39042;53.150;5.898;2023-03-30T15:56:39;34.55;;;9.35;;
53145;SDS011;39042;53.150;5.898;2023-03-30T15:59:30;31.98;;;8.60;;
53145;SDS011;39042;53.150;5.898;2023-03-30T16:02:21;33.22;;;6.43;;
53145;SDS011;39042;53.150;5.898;2023-03-30T16:05:15;33.72;;;6.45;;
53145;SDS011;39042;53.150;5.898;2023-03-30T16:07:43;40.10;;;7.60;;
53145;SDS011;39042;53.150;5.898;2023-03-30T16:10:12;30.47;;;5.93;;
53145;SDS011;39042;53.150;5.898;2023-03-30T16:12:39;28.60;;;6.80;;
53145;SDS011;39042;53.150;5.898;2023-03-30T16:15:14;34.92;;;7.38;;
53145;SDS011;39042;53.150;5.898;2023-03-30T16:17:42;39.10;;;5.40;;
53145;SDS011;39042;53.150;5.898;2023-03-30T16:20:15;28.38;;;8.43;;
53145;SDS011;39042;53.150;5.898;2023-03-30T16:22:41;39.50;;;12.57;;
53145;SDS011;39042;53.150;5.898;2023-03-30T16:25:08;36.88;;;6.35;;
53145;SDS011;39042;53.150;5.898;2023-03-30T16:27:34;30.80;;;5.78;;
53145;SDS011;39042;53.150;5.898;2023-03-30T16:30:01;35.30;;;5.88;;
53145;SDS011;39042;53.150;5.898;2023-03-30T16:32:37;29.70;;;5.60;;
53145;SDS011;39042;53.150;5.898;2023-03-30T16:35:03;35.63;;;5.97;;
53145;SDS011;39042;53.150;5.898;2023-03-30T16:37:29;33.35;;;5.05;;
53145;SDS011;39042;53.150;5.898;2023-03-30T16:39:54;36.30;;;6.23;;
53145;SDS011;39042;53.150;5.898;2023-03-30T16:42:20;34.60;;;5.47;;
53145;SDS011;39042;53.150;5.898;2023-03-30T16:44:46;43.77;;;7.57;;
53145;SDS011;39042;53.150;5.898;2023-03-30T16:47:12;45.43;;;15.27;;
53145;SDS011;39042;53.150;5.898;2023-03-30T16:52:04;40.72;;;11.25;;
53145;SDS011;39042;53.150;5.898;2023-03-30T16:54:31;49.05;;;16.05;;
53145;SDS011;39042;53.150;5.898;2023-03-30T16:56:56;37.53;;;8.17;;
53145;SDS011;39042;53.150;5.898;2023-03-30T16:59:23;35.67;;;9.00;;
53145;SDS011;39042;53.150;5.898;2023-03-30T17:01:51;30.83;;;6.82;;
53145;SDS011;39042;53.150;5.898;2023-03-30T17:04:17;40.33;;;8.23;;
53145;SDS011;39042;53.150;5.898;2023-03-30T17:06:42;34.50;;;8.40;;
53145;SDS011;39042;53.150;5.898;2023-03-30T17:09:15;34.87;;;6.67;;
53145;SDS011;39042;53.150;5.898;2023-03-30T17:11:43;36.40;;;7.85;;
53145;SDS011;39042;53.150;5.898;2023-03-30T17:14:10;34.35;;;6.43;;
53145;SDS011;39042;53.150;5.898;2023-03-30T17:16:37;33.00;;;7.57;;
53145;SDS011;39042;53.150;5.898;2023-03-30T17:19:03;35.80;;;7.35;;
53145;SDS011;39042;53.150;5.898;2023-03-30T17:21:28;38.27;;;6.47;;
53145;SDS011;39042;53.150;5.898;2023-03-30T17:23:54;43.90;;;6.50;;
53145;SDS011;39042;53.150;5.898;2023-03-30T17:26:20;33.90;;;6.20;;
53145;SDS011;39042;53.150;5.898;2023-03-30T17:28:46;35.27;;;5.80;;
53145;SDS011;39042;53.150;5.898;2023-03-30T17:31:13;33.85;;;6.40;;
53145;SDS011;39042;53.150;5.898;2023-03-30T17:33:41;32.90;;;5.40;;
53145;SDS011;39042;53.150;5.898;2023-03-30T17:36:16;29.47;;;4.63;;
53145;SDS011;39042;53.150;5.898;2023-03-30T17:38:44;29.58;;;4.72;;
53145;SDS011;39042;53.150;5.898;2023-03-30T17:41:11;34.38;;;4.88;;
53145;SDS011;39042;53.150;5.898;2023-03-30T17:43:38;43.42;;;6.25;;
53145;SDS011;39042;53.150;5.898;2023-03-30T17:46:05;36.72;;;5.82;;
53145;SDS011;39042;53.150;5.898;2023-03-30T17:48:31;44.13;;;10.80;;
53145;SDS011;39042;53.150;5.898;2023-03-30T17:50:57;38.27;;;9.23;;
53145;SDS011;39042;53.150;5.898;2023-03-30T17:53:23;36.07;;;7.93;;
53145;SDS011;39042;53.150;5.898;2023-03-30T17:55:50;34.58;;;6.85;;
53145;SDS011;39042;53.150;5.898;2023-03-30T17:58:20;38.53;;;8.73;;
53145;SDS011;39042;53.150;5.898;2023-03-30T18:00:48;34.85;;;6.25;;
53145;SDS011;39042;53.150;5.898;2023-03-30T18:03:16;37.55;;;6.00;;
53145;SDS011;39042;53.150;5.898;2023-03-30T18:05:43;34.45;;;5.63;;
53145;SDS011;39042;53.150;5.898;2023-03-30T18:10:42;31.08;;;5.13;;
53145;SDS011;39042;53.150;5.898;2023-03-30T18:13:12;38.38;;;6.25;;
53145;SDS011;39042;53.150;5.898;2023-03-30T18:15:39;31.27;;;5.45;;
53145;SDS011;39042;53.150;5.898;2023-03-30T18:18:04;33.10;;;4.37;;
53145;SDS011;39042;53.150;5.898;2023-03-30T18:20:42;42.50;;;5.93;;
53145;SDS011;39042;53.150;5.898;2023-03-30T18:23:09;31.00;;;5.28;;
53145;SDS011;39042;53.150;5.898;2023-03-30T18:25:35;33.95;;;6.78;;
53145;SDS011;39042;53.150;5.898;2023-03-30T18:28:01;34.90;;;6.55;;
53145;SDS011;39042;53.150;5.898;2023-03-30T18:30:31;33.10;;;6.60;;
53145;SDS011;39042;53.150;5.898;2023-03-30T18:33:01;34.63;;;5.93;;
53145;SDS011;39042;53.150;5.898;2023-03-30T18:35:27;38.23;;;7.30;;
53145;SDS011;39042;53.150;5.898;2023-03-30T18:37:55;38.92;;;6.60;;
53145;SDS011;39042;53.150;5.898;2023-03-30T18:40:28;30.70;;;5.72;;
53145;SDS011;39042;53.150;5.898;2023-03-30T18:43:02;32.35;;;6.72;;
53145;SDS011;39042;53.150;5.898;2023-03-30T18:45:29;42.10;;;7.05;;
53145;SDS011;39042;53.150;5.898;2023-03-30T18:47:58;31.17;;;6.47;;
53145;SDS011;39042;53.150;5.898;2023-03-30T18:50:36;30.30;;;6.80;;
53145;SDS011;39042;53.150;5.898;2023-03-30T18:55:30;24.88;;;5.82;;
53145;SDS011;39042;53.150;5.898;2023-03-30T18:57:58;31.75;;;4.63;;
53145;SDS011;39042;53.150;5.898;2023-03-30T19:00:24;40.07;;;6.87;;
53145;SDS011;39042;53.150;5.898;2023-03-30T19:02:52;36.47;;;5.82;;
53145;SDS011;39042;53.150;5.898;2023-03-30T19:05:21;37.38;;;6.13;;
53145;SDS011;39042;53.150;5.898;2023-03-30T19:07:48;39.13;;;6.22;;
53145;SDS011;39042;53.150;5.898;2023-03-30T19:10:18;37.97;;;5.93;;
53145;SDS011;39042;53.150;5.898;2023-03-30T19:12:48;31.10;;;4.97;;
53145;SDS011;39042;53.150;5.898;2023-03-30T19:15:21;26.85;;;4.63;;
53145;SDS011;39042;53.150;5.898;2023-03-30T19:17:47;36.17;;;6.05;;
53145;SDS011;39042;53.150;5.898;2023-03-30T19:20:14;24.27;;;4.07;;
53145;SDS011;39042;53.150;5.898;2023-03-30T19:25:07;34.83;;;5.03;;
53145;SDS011;39042;53.150;5.898;2023-03-30T19:27:34;39.53;;;6.03;;
53145;SDS011;39042;53.150;5.898;2023-03-30T19:30:01;32.53;;;5.18;;
53145;SDS011;39042;53.150;5.898;2023-03-30T19:32:26;32.07;;;6.33;;
53145;SDS011;39042;53.150;5.898;2023-03-30T19:37:20;34.20;;;4.95;;
53145;SDS011;39042;53.150;5.898;2023-03-30T19:42:12;210.93;;;81.93;;
53145;SDS011;39042;53.150;5.898;2023-03-30T19:44:38;55.07;;;15.37;;
53145;SDS011;39042;53.150;5.898;2023-03-30T19:47:04;77.80;;;33.37;;
53145;SDS011;39042;53.150;5.898;2023-03-30T19:49:30;56.10;;;20.03;;
53145;SDS011;39042;53.150;5.898;2023-03-30T19:51:56;63.35;;;27.58;;